createdAt,value
2023-05-09T00:00:58.664Z,16.00
2023-05-09T00:03:26.430Z,16.00
2023-05-09T00:05:54.139Z,16.00
2023-05-09T00:08:21.913Z,15.90
2023-05-09T00:10:49.638Z,15.90
2023-05-09T00:13:17.694Z,15.90
2023-05-09T00:15:47.295Z,15.90
2023-05-09T00:18:15.245Z,15.90
2023-05-09T00:20:44.387Z,15.90
2023-05-09T00:23:12.071Z,15.80
2023-05-09T00:25:39.823Z,15.80
2023-05-09T00:28:07.638Z,15.70
2023-05-09T00:30:35.383Z,15.70
2023-05-09T00:33:04.650Z,15.70
2023-05-09T00:35:32.983Z,15.60
2023-05-09T00:38:00.876Z,15.70
2023-05-09T00:40:28.598Z,15.60
2023-05-09T00:42:58.299Z,15.60
2023-05-09T00:45:26.128Z,15.60
2023-05-09T00:47:54.099Z,15.60
2023-05-09T00:50:23.241Z,15.60
2023-05-09T00:52:51.526Z,15.60
2023-05-09T00:55:19.303Z,15.60
2023-05-09T00:57:47.016Z,15.60
2023-05-09T01:00:15.471Z,15.50
2023-05-09T01:02:44.082Z,15.50
2023-05-09T01:05:12.631Z,15.50
2023-05-09T01:07:44.586Z,15.50
2023-05-09T01:10:16.129Z,15.50
2023-05-09T01:12:47.171Z,15.50
2023-05-09T01:15:17.997Z,15.50
2023-05-09T01:17:50.788Z,15.50
2023-05-09T01:20:21.826Z,15.50
2023-05-09T01:22:53.846Z,15.40
2023-05-09T01:25:31.434Z,15.40
2023-05-09T01:27:59.930Z,15.40
2023-05-09T01:30:29.972Z,15.40
2023-05-09T01:33:00.519Z,15.40
2023-05-09T01:35:29.724Z,15.40
2023-05-09T01:37:57.817Z,15.40
2023-05-09T01:40:26.811Z,15.40
2023-05-09T01:42:57.840Z,15.40
2023-05-09T01:45:26.251Z,15.30
2023-05-09T01:47:55.374Z,15.20
2023-05-09T01:50:23.475Z,15.20
2023-05-09T01:52:53.383Z,15.10
2023-05-09T01:55:22.357Z,15.10
2023-05-09T01:57:51.307Z,15.00
2023-05-09T02:00:19.355Z,14.90
2023-05-09T02:02:47.352Z,14.90
2023-05-09T02:05:16.905Z,14.90
2023-05-09T02:07:46.346Z,14.90
2023-05-09T02:10:14.185Z,14.90
2023-05-09T02:12:41.995Z,14.90
2023-05-09T02:15:10.082Z,14.90
2023-05-09T02:17:37.991Z,15.00
2023-05-09T02:20:06.440Z,14.90
2023-05-09T02:22:35.478Z,14.90
2023-05-09T02:25:04.804Z,14.90
2023-05-09T02:27:33.783Z,14.90
2023-05-09T02:30:04.156Z,15.00
2023-05-09T02:32:32.747Z,14.90
2023-05-09T02:35:02.261Z,15.00
2023-05-09T02:37:30.479Z,15.00
2023-05-09T02:39:59.519Z,14.90
2023-05-09T02:42:30.007Z,14.90
2023-05-09T02:44:57.799Z,14.90
2023-05-09T02:47:25.688Z,14.90
2023-05-09T02:49:53.471Z,14.80
2023-05-09T02:52:21.382Z,14.80
2023-05-09T02:54:49.041Z,14.80
2023-05-09T02:57:18.127Z,14.70
2023-05-09T02:59:45.835Z,14.80
2023-05-09T03:02:13.568Z,14.70
2023-05-09T03:04:41.986Z,14.70
2023-05-09T03:07:09.753Z,14.70
2023-05-09T03:09:38.760Z,14.70
2023-05-09T03:12:08.288Z,14.70
2023-05-09T03:14:37.465Z,14.70
2023-05-09T03:17:05.189Z,14.70
2023-05-09T03:19:33.334Z,14.70
2023-05-09T03:22:01.041Z,14.70
2023-05-09T03:24:29.160Z,14.70
2023-05-09T03:26:56.829Z,14.70
2023-05-09T03:29:24.546Z,14.70
2023-05-09T03:31:53.698Z,14.70
2023-05-09T03:34:21.490Z,14.70
2023-05-09T03:36:49.414Z,14.70
2023-05-09T03:39:17.324Z,14.70
2023-05-09T03:41:45.234Z,14.70
2023-05-09T03:44:13.060Z,14.70
2023-05-09T03:46:41.081Z,14.60
2023-05-09T03:49:10.447Z,14.60
2023-05-09T03:51:39.854Z,14.60
2023-05-09T03:54:09.246Z,14.60
2023-05-09T03:56:37.184Z,14.60
2023-05-09T03:59:05.098Z,14.60
2023-05-09T04:01:33.084Z,14.60
2023-05-09T04:04:01.260Z,14.60
2023-05-09T04:06:31.040Z,14.60
2023-05-09T04:08:58.978Z,14.60
2023-05-09T04:11:26.949Z,14.60
2023-05-09T04:13:55.955Z,14.60
2023-05-09T04:16:24.010Z,14.60
2023-05-09T04:18:51.939Z,14.60
2023-05-09T04:21:19.835Z,14.70
2023-05-09T04:23:49.081Z,14.60
2023-05-09T04:26:18.020Z,14.50
2023-05-09T04:28:45.932Z,14.50
2023-05-09T04:31:14.698Z,14.50
2023-05-09T04:33:42.763Z,14.50
2023-05-09T04:36:11.295Z,14.60
2023-05-09T04:38:39.224Z,14.60
2023-05-09T04:41:08.548Z,14.60
2023-05-09T04:43:36.443Z,14.70
2023-05-09T04:46:04.425Z,14.70
2023-05-09T04:48:32.352Z,14.70
2023-05-09T04:51:00.275Z,14.70
2023-05-09T04:53:28.328Z,14.70
2023-05-09T04:55:57.352Z,14.70
2023-05-09T04:58:26.709Z,14.80
2023-05-09T05:00:54.710Z,14.80
2023-05-09T05:03:22.585Z,14.90
2023-05-09T05:05:50.785Z,14.90
2023-05-09T05:08:18.743Z,14.90
2023-05-09T05:10:47.469Z,15.00
2023-05-09T05:13:15.609Z,15.00
2023-05-09T05:15:44.967Z,15.00
2023-05-09T05:18:12.974Z,15.00
2023-05-09T05:20:41.868Z,15.00
2023-05-09T05:23:10.189Z,15.00
2023-05-09T05:25:38.050Z,15.00
2023-05-09T05:28:06.224Z,15.10
2023-05-09T05:30:34.610Z,15.10
2023-05-09T05:33:04.057Z,15.10
2023-05-09T05:35:31.983Z,15.10
2023-05-09T05:37:59.870Z,15.20
2023-05-09T05:40:27.784Z,15.20
2023-05-09T05:42:55.646Z,15.30
2023-05-09T05:45:23.625Z,15.30
2023-05-09T05:47:51.498Z,15.40
2023-05-09T05:50:21.189Z,15.40
2023-05-09T05:52:49.070Z,15.50
2023-05-09T05:55:17.170Z,15.50
2023-05-09T05:57:45.240Z,15.60
2023-05-09T06:00:14.846Z,15.70
2023-05-09T06:02:44.227Z,15.70
2023-05-09T06:05:12.945Z,15.80
2023-05-09T06:07:44.095Z,15.90
2023-05-09T06:10:12.222Z,15.90
2023-05-09T06:12:40.250Z,16.00
2023-05-09T06:15:09.052Z,16.10
2023-05-09T06:17:37.094Z,16.10
2023-05-09T06:20:05.706Z,16.20
2023-05-09T06:22:33.613Z,16.20
2023-05-09T06:25:02.902Z,16.30
2023-05-09T06:27:30.886Z,16.30
2023-05-09T06:29:58.765Z,16.40
2023-05-09T06:32:26.693Z,16.40
2023-05-09T06:34:54.627Z,16.40
2023-05-09T06:37:22.553Z,16.40
2023-05-09T06:39:50.922Z,16.50
2023-05-09T06:42:20.142Z,16.50
2023-05-09T06:44:48.007Z,16.50
2023-05-09T06:47:16.132Z,16.60
2023-05-09T06:49:43.996Z,16.60
2023-05-09T06:52:12.915Z,16.60
2023-05-09T06:54:40.831Z,16.70
2023-05-09T06:57:09.053Z,16.80
2023-05-09T06:59:38.318Z,16.80
2023-05-09T07:02:06.361Z,16.90
2023-05-09T07:04:34.247Z,16.80
2023-05-09T07:07:02.178Z,16.90
2023-05-09T07:09:30.010Z,17.00
2023-05-09T07:11:57.954Z,17.00
2023-05-09T07:14:25.857Z,17.00
2023-05-09T07:17:02.218Z,17.10
2023-05-09T07:19:38.135Z,17.20
2023-05-09T07:22:06.129Z,17.30
2023-05-09T07:24:33.986Z,17.40
2023-05-09T07:27:04.010Z,17.50
2023-05-09T07:29:31.881Z,17.70
2023-05-09T07:32:01.299Z,17.80
2023-05-09T07:34:29.205Z,17.90
2023-05-09T07:36:58.551Z,18.00
2023-05-09T07:39:26.571Z,18.10
2023-05-09T07:41:54.469Z,18.30
2023-05-09T07:44:22.324Z,18.30
2023-05-09T07:46:50.178Z,18.30
2023-05-09T07:49:19.418Z,18.40
2023-05-09T07:51:47.314Z,18.40
2023-05-09T07:54:15.230Z,18.40
2023-05-09T07:56:43.187Z,18.50
2023-05-09T07:59:12.270Z,18.70
2023-05-09T08:01:40.416Z,18.80
2023-05-09T08:04:09.701Z,19.00
2023-05-09T08:06:39.122Z,19.30
2023-05-09T08:09:07.052Z,19.50
2023-05-09T08:11:35.975Z,19.60
2023-05-09T08:14:04.038Z,19.80
2023-05-09T08:16:31.970Z,19.90
2023-05-09T08:18:59.892Z,19.90
2023-05-09T08:21:27.858Z,20.00
2023-05-09T08:23:57.058Z,20.00
2023-05-09T08:26:24.932Z,20.10
2023-05-09T08:28:54.090Z,20.10
2023-05-09T08:31:22.372Z,20.20
2023-05-09T08:33:50.263Z,20.20
2023-05-09T08:36:18.130Z,20.30
2023-05-09T08:38:46.353Z,20.30
2023-05-09T08:41:16.282Z,20.40
2023-05-09T08:43:44.796Z,20.40
2023-05-09T08:46:14.530Z,20.50
2023-05-09T08:48:43.725Z,20.50
2023-05-09T08:51:12.129Z,20.60
2023-05-09T08:53:40.640Z,20.70
2023-05-09T08:56:08.885Z,20.90
2023-05-09T08:58:39.681Z,20.90
2023-05-09T09:01:07.884Z,21.00
2023-05-09T09:03:38.165Z,21.00
2023-05-09T09:06:08.619Z,21.10
2023-05-09T09:08:37.215Z,21.10
2023-05-09T09:11:05.612Z,21.10
2023-05-09T09:13:38.500Z,21.20
2023-05-09T09:16:11.282Z,21.20
2023-05-09T09:18:40.193Z,21.20
2023-05-09T09:21:11.337Z,21.30
2023-05-09T09:23:42.957Z,21.40
2023-05-09T09:26:10.954Z,21.50
2023-05-09T09:28:38.935Z,21.50
2023-05-09T09:31:22.291Z,21.70
2023-05-09T09:33:51.093Z,21.70
2023-05-09T09:36:28.163Z,21.70
2023-05-09T09:39:00.403Z,21.70
2023-05-09T09:41:32.800Z,21.70
2023-05-09T09:44:00.655Z,21.80
2023-05-09T09:46:30.155Z,21.80
2023-05-09T09:48:58.189Z,21.80
2023-05-09T09:51:29.987Z,21.90
2023-05-09T09:53:57.922Z,21.80
2023-05-09T09:56:40.166Z,21.80
2023-05-09T09:59:12.464Z,21.80
2023-05-09T10:02:02.900Z,21.90
2023-05-09T10:04:35.295Z,21.90
2023-05-09T10:07:05.105Z,21.90
2023-05-09T10:09:34.304Z,21.90
2023-05-09T10:12:04.667Z,21.90
2023-05-09T10:14:35.311Z,21.90
2023-05-09T10:17:06.260Z,22.00
2023-05-09T10:19:34.466Z,22.00
2023-05-09T10:22:05.768Z,22.10
2023-05-09T10:24:38.585Z,22.20
2023-05-09T10:27:11.077Z,22.20
2023-05-09T10:29:47.345Z,22.20
2023-05-09T10:32:23.382Z,22.20
2023-05-09T10:34:55.613Z,22.20
2023-05-09T10:37:24.454Z,22.20
2023-05-09T10:39:53.849Z,22.30
2023-05-09T10:42:23.811Z,22.30
2023-05-09T10:44:53.514Z,22.40
2023-05-09T10:47:23.558Z,22.40
2023-05-09T10:49:51.977Z,22.40
2023-05-09T10:52:22.548Z,22.40
2023-05-09T10:55:01.230Z,22.40
2023-05-09T10:57:31.195Z,22.30
2023-05-09T11:00:00.173Z,22.30
2023-05-09T11:02:32.229Z,22.30
2023-05-09T11:05:17.174Z,22.30
2023-05-09T11:07:45.554Z,22.30
2023-05-09T11:10:17.717Z,22.20
2023-05-09T11:12:57.955Z,22.20
2023-05-09T11:15:27.617Z,22.20
2023-05-09T11:18:08.345Z,22.10
2023-05-09T11:20:37.423Z,22.20
2023-05-09T11:23:06.800Z,22.20
2023-05-09T11:25:34.857Z,22.10
2023-05-09T11:28:03.292Z,22.10
2023-05-09T11:30:40.387Z,22.10
2023-05-09T11:33:23.879Z,22.10
2023-05-09T11:36:16.507Z,22.00
2023-05-09T11:38:44.599Z,22.00
2023-05-09T11:41:12.893Z,22.00
2023-05-09T11:43:41.321Z,22.00
2023-05-09T11:46:09.380Z,22.00
2023-05-09T11:48:42.564Z,22.10
2023-05-09T11:51:18.130Z,22.10
2023-05-09T11:53:46.940Z,22.20
2023-05-09T11:56:15.466Z,22.20
2023-05-09T11:58:44.137Z,22.30
2023-05-09T12:01:12.610Z,22.30
2023-05-09T12:03:45.300Z,22.30
2023-05-09T12:06:17.100Z,22.40
2023-05-09T12:08:46.225Z,22.40
2023-05-09T12:11:15.166Z,22.50
2023-05-09T12:13:48.037Z,22.40
2023-05-09T12:16:16.509Z,22.40
2023-05-09T12:18:51.645Z,22.40
2023-05-09T12:21:20.411Z,22.50
2023-05-09T12:23:51.514Z,22.50
2023-05-09T12:26:22.652Z,22.60
2023-05-09T12:28:51.033Z,22.80
2023-05-09T12:31:19.133Z,22.90
2023-05-09T12:33:47.352Z,23.00
2023-05-09T12:36:17.734Z,23.00
2023-05-09T12:38:54.161Z,23.00
2023-05-09T12:43:58.144Z,23.00
2023-05-09T12:46:26.158Z,22.90
2023-05-09T12:48:54.187Z,22.90
2023-05-09T12:51:24.208Z,23.00
2023-05-09T12:53:52.284Z,23.00
2023-05-09T12:56:22.991Z,23.10
2023-05-09T12:58:52.162Z,23.10
2023-05-09T13:01:20.622Z,23.10
2023-05-09T13:03:53.115Z,23.00
2023-05-09T13:06:21.157Z,23.00
2023-05-09T13:09:01.341Z,23.00
2023-05-09T13:11:30.610Z,23.10
2023-05-09T13:13:59.231Z,23.10
2023-05-09T13:16:27.624Z,23.10
2023-05-09T13:18:55.588Z,23.20
2023-05-09T13:21:23.569Z,23.20
2023-05-09T13:23:52.082Z,23.20
2023-05-09T13:26:21.574Z,23.20
2023-05-09T13:28:49.542Z,23.20
2023-05-09T13:31:17.720Z,23.20
2023-05-09T13:33:45.833Z,23.30
2023-05-09T13:36:13.730Z,23.30
2023-05-09T13:38:42.117Z,23.30
2023-05-09T13:41:11.096Z,23.20
2023-05-09T13:43:42.622Z,23.20
2023-05-09T13:46:10.562Z,23.20
2023-05-09T13:48:39.637Z,23.20
2023-05-09T13:51:08.345Z,23.20
2023-05-09T13:53:38.730Z,23.10
2023-05-09T13:56:09.292Z,23.10
2023-05-09T13:58:37.389Z,23.20
2023-05-09T14:01:07.507Z,23.10
2023-05-09T14:03:35.829Z,23.10
2023-05-09T14:06:04.280Z,23.20
2023-05-09T14:08:32.287Z,23.20
2023-05-09T14:11:00.212Z,23.10
2023-05-09T14:13:28.219Z,23.10
2023-05-09T14:15:56.311Z,23.10
2023-05-09T14:18:25.554Z,23.10
2023-05-09T14:20:53.439Z,23.10
2023-05-09T14:23:22.233Z,23.10
2023-05-09T14:25:50.151Z,23.00
2023-05-09T14:28:18.061Z,23.10
2023-05-09T14:30:46.027Z,23.10
2023-05-09T14:33:14.536Z,23.10
2023-05-09T14:35:43.858Z,23.20
2023-05-09T14:38:13.066Z,23.10
2023-05-09T14:40:41.069Z,23.10
2023-05-09T14:43:09.610Z,23.10
2023-05-09T14:45:37.692Z,23.10
2023-05-09T14:48:05.758Z,23.10
2023-05-09T14:50:33.794Z,23.10
2023-05-09T14:53:03.768Z,23.00
2023-05-09T14:55:32.499Z,23.00
2023-05-09T14:58:00.385Z,23.00
2023-05-09T15:00:28.895Z,22.90
2023-05-09T15:02:57.606Z,22.90
2023-05-09T15:05:25.903Z,22.80
2023-05-09T15:07:53.866Z,22.70
2023-05-09T15:10:23.238Z,22.60
2023-05-09T15:12:51.146Z,22.50
2023-05-09T15:15:20.556Z,22.40
2023-05-09T15:17:48.773Z,22.30
2023-05-09T15:20:18.168Z,22.30
2023-05-09T15:22:46.637Z,22.20
2023-05-09T15:25:14.870Z,22.10
2023-05-09T15:27:44.174Z,22.00
2023-05-09T15:30:13.122Z,21.90
2023-05-09T15:32:41.211Z,21.70
2023-05-09T15:35:09.863Z,21.60
2023-05-09T15:37:38.462Z,21.50
2023-05-09T15:40:07.762Z,21.40
2023-05-09T15:42:36.016Z,21.30
2023-05-09T15:45:05.740Z,21.30
2023-05-09T15:47:33.738Z,21.30
2023-05-09T15:50:01.708Z,21.20
2023-05-09T15:52:29.669Z,21.30
2023-05-09T15:54:58.006Z,21.30
2023-05-09T15:57:26.304Z,21.30
2023-05-09T15:59:55.870Z,21.40
2023-05-09T16:02:25.255Z,21.40
2023-05-09T16:04:53.267Z,21.40
2023-05-09T16:07:21.180Z,21.40
2023-05-09T16:09:49.142Z,21.30
2023-05-09T16:12:17.361Z,21.20
2023-05-09T16:14:45.425Z,21.10
2023-05-09T16:17:13.405Z,21.10
2023-05-09T16:19:42.913Z,21.00
2023-05-09T16:22:11.034Z,21.00
2023-05-09T16:24:38.968Z,20.90
2023-05-09T16:27:06.847Z,20.90
2023-05-09T16:29:34.813Z,20.80
2023-05-09T16:32:02.797Z,20.80
2023-05-09T16:34:30.731Z,20.80
2023-05-09T16:37:00.127Z,20.80
2023-05-09T16:39:28.813Z,20.70
2023-05-09T16:41:56.985Z,20.70
2023-05-09T16:44:26.352Z,20.60
2023-05-09T16:46:54.358Z,20.60
2023-05-09T16:49:22.246Z,20.50
2023-05-09T16:51:50.204Z,20.50
2023-05-09T16:54:19.509Z,20.50
2023-05-09T16:56:47.409Z,20.40
2023-05-09T16:59:15.333Z,20.40
2023-05-09T17:01:43.463Z,20.30
2023-05-09T17:04:11.494Z,20.30
2023-05-09T17:06:39.440Z,20.20
2023-05-09T17:09:07.590Z,20.20
2023-05-09T17:11:36.929Z,20.10
2023-05-09T17:14:04.860Z,20.00
2023-05-09T17:16:33.175Z,20.00
2023-05-09T17:19:02.123Z,19.90
2023-05-09T17:21:30.722Z,19.90
2023-05-09T17:23:58.832Z,19.80
2023-05-09T17:26:26.791Z,19.80
2023-05-09T17:28:56.091Z,19.70
2023-05-09T17:31:23.964Z,19.70
2023-05-09T17:33:51.916Z,19.60
2023-05-09T17:36:19.864Z,19.50
2023-05-09T17:38:47.822Z,19.40
2023-05-09T17:41:15.751Z,19.40
2023-05-09T17:43:43.653Z,19.30
2023-05-09T17:46:14.745Z,19.30
2023-05-09T17:48:43.046Z,19.10
2023-05-09T17:51:11.291Z,19.00
2023-05-09T17:53:39.253Z,19.00
2023-05-09T17:56:07.582Z,19.00
2023-05-09T17:58:35.523Z,18.90
2023-05-09T18:01:03.427Z,19.00
2023-05-09T18:03:33.259Z,18.90
2023-05-09T18:06:01.615Z,18.90
2023-05-09T18:08:30.041Z,18.90
2023-05-09T18:10:58.571Z,18.90
2023-05-09T18:13:26.600Z,18.90
2023-05-09T18:15:59.341Z,18.90
2023-05-09T18:18:28.367Z,18.90
2023-05-09T18:20:57.879Z,18.90
2023-05-09T18:23:26.405Z,18.90
2023-05-09T18:25:54.891Z,18.80
2023-05-09T18:28:25.419Z,18.80
2023-05-09T18:30:54.367Z,18.70
2023-05-09T18:33:23.157Z,18.80
2023-05-09T18:35:51.365Z,18.70
2023-05-09T18:38:20.837Z,18.70
2023-05-09T18:40:49.659Z,18.70
2023-05-09T18:43:17.949Z,18.70
2023-05-09T18:45:47.888Z,18.70
2023-05-09T18:48:16.987Z,18.60
2023-05-09T18:50:45.006Z,18.60
2023-05-09T18:53:12.971Z,18.60
2023-05-09T18:55:42.796Z,18.60
2023-05-09T18:58:10.739Z,18.50
2023-05-09T19:00:39.395Z,18.50
2023-05-09T19:03:07.761Z,18.50
2023-05-09T19:05:36.625Z,18.60
2023-05-09T19:08:04.701Z,18.50
2023-05-09T19:10:33.739Z,18.50
2023-05-09T19:13:03.182Z,18.50
2023-05-09T19:15:31.491Z,18.50
2023-05-09T19:17:59.444Z,18.40
2023-05-09T19:20:29.519Z,18.40
2023-05-09T19:22:57.681Z,18.40
2023-05-09T19:25:26.747Z,18.30
2023-05-09T19:27:54.750Z,18.30
2023-05-09T19:30:23.958Z,18.30
2023-05-09T19:32:51.866Z,18.30
2023-05-09T19:35:21.237Z,18.30
2023-05-09T19:37:49.146Z,18.30
2023-05-09T19:40:17.178Z,18.30
2023-05-09T19:42:45.286Z,18.30
2023-05-09T19:45:13.773Z,18.30
2023-05-09T19:47:43.654Z,18.20
2023-05-09T19:50:12.239Z,18.30
2023-05-09T19:52:40.182Z,18.30
2023-05-09T19:55:08.857Z,18.30
2023-05-09T19:57:36.681Z,18.30
2023-05-09T20:00:07.011Z,18.20
2023-05-09T20:02:35.309Z,18.20
2023-05-09T20:05:04.826Z,18.20
2023-05-09T20:07:32.788Z,18.10
2023-05-09T20:10:00.793Z,18.00
2023-05-09T20:12:30.149Z,18.00
2023-05-09T20:14:58.456Z,18.00
2023-05-09T20:17:26.425Z,18.00
2023-05-09T20:19:54.383Z,17.90
2023-05-09T20:22:23.618Z,18.00
2023-05-09T20:24:51.489Z,18.00
2023-05-09T20:27:19.457Z,18.00
2023-05-09T20:29:47.374Z,18.00
2023-05-09T20:32:15.246Z,18.10
2023-05-09T20:34:43.098Z,18.00
2023-05-09T20:37:11.908Z,18.00
2023-05-09T20:39:41.189Z,18.10
2023-05-09T20:42:09.151Z,18.00
2023-05-09T20:44:37.579Z,18.00
2023-05-09T20:47:05.655Z,18.00
2023-05-09T20:49:33.551Z,18.00
2023-05-09T20:52:01.467Z,17.90
2023-05-09T20:54:30.857Z,17.90
2023-05-09T20:57:00.177Z,17.90
2023-05-09T20:59:28.192Z,17.80
2023-05-09T21:01:56.574Z,17.80
2023-05-09T21:04:24.631Z,17.80
2023-05-09T21:06:52.563Z,17.70
2023-05-09T21:09:20.471Z,17.70
2023-05-09T21:11:48.367Z,17.70
2023-05-09T21:14:17.589Z,17.70
2023-05-09T21:16:46.575Z,17.60
2023-05-09T21:19:14.552Z,17.60
2023-05-09T21:21:42.707Z,17.60
2023-05-09T21:24:11.028Z,17.60
2023-05-09T21:26:39.050Z,17.60
2023-05-09T21:29:07.420Z,17.60
2023-05-09T21:31:36.835Z,17.70
2023-05-09T21:34:09.606Z,17.70
2023-05-09T21:36:38.280Z,17.70
2023-05-09T21:39:09.046Z,17.70
2023-05-09T21:41:37.708Z,17.70
2023-05-09T21:44:07.273Z,17.60
2023-05-09T21:46:36.808Z,17.60
2023-05-09T21:49:05.055Z,17.60
2023-05-09T21:51:33.494Z,17.60
2023-05-09T21:54:02.219Z,17.60
2023-05-09T21:56:30.395Z,17.60
2023-05-09T21:58:58.322Z,17.60
2023-05-09T22:01:26.201Z,17.60
2023-05-09T22:03:55.576Z,17.60
2023-05-09T22:06:23.542Z,17.60
2023-05-09T22:08:51.636Z,17.60
2023-05-09T22:11:19.582Z,17.60
2023-05-09T22:13:47.540Z,17.60
2023-05-09T22:16:15.515Z,17.50
2023-05-09T22:18:43.380Z,17.50
2023-05-09T22:21:12.731Z,17.50
2023-05-09T22:23:40.646Z,17.50
2023-05-09T22:26:08.539Z,17.50
2023-05-09T22:28:37.325Z,17.50
2023-05-09T22:31:06.980Z,17.50
2023-05-09T22:33:35.100Z,17.50
2023-05-09T22:36:03.045Z,17.50
2023-05-09T22:38:32.275Z,17.50
2023-05-09T22:41:00.227Z,17.50
2023-05-09T22:43:33.830Z,17.50
2023-05-09T22:46:07.013Z,17.40
2023-05-09T22:48:34.982Z,17.50
2023-05-09T22:51:03.275Z,17.50
2023-05-09T22:53:32.684Z,17.50
2023-05-09T22:56:00.724Z,17.40
2023-05-09T22:58:28.680Z,17.40
2023-05-09T23:00:56.696Z,17.40
2023-05-09T23:03:24.814Z,17.30
2023-05-09T23:05:52.804Z,17.30
2023-05-09T23:08:20.768Z,17.20
2023-05-09T23:10:50.028Z,17.20
2023-05-09T23:13:18.221Z,17.20
2023-05-09T23:15:47.623Z,17.20
2023-05-09T23:18:15.578Z,17.20
2023-05-09T23:20:43.513Z,17.20
2023-05-09T23:23:11.565Z,17.30
2023-05-09T23:25:40.039Z,17.20
2023-05-09T23:28:09.387Z,17.20
2023-05-09T23:30:37.350Z,17.20
2023-05-09T23:33:05.319Z,17.20
2023-05-09T23:35:33.223Z,17.20
2023-05-09T23:38:01.144Z,17.20
2023-05-09T23:40:29.094Z,17.20
2023-05-09T23:42:57.042Z,17.10
2023-05-09T23:45:26.828Z,17.10
2023-05-09T23:47:54.816Z,17.10
2023-05-09T23:50:23.194Z,17.00
2023-05-09T23:52:51.216Z,17.00
2023-05-09T23:55:19.225Z,16.90
2023-05-09T23:57:47.197Z,16.90
